sensor_id;sensor_type;location;lat;lon;timestamp;temperature;humidity
6439;DHT22;3252;52.540;13.290;2023-04-24T00:00:19;13.00;99.90
6439;DHT22;3252;52.540;13.290;2023-04-24T00:02:21;13.00;99.90
6439;DHT22;3252;52.540;13.290;2023-04-24T00:04:25;13.00;99.90
6439;DHT22;3252;52.540;13.290;2023-04-24T00:06:28;12.90;99.90
6439;DHT22;3252;52.540;13.290;2023-04-24T00:08:33;12.90;99.90
6439;DHT22;3252;52.540;13.290;2023-04-24T00:10:36;12.90;99.90
6439;DHT22;3252;52.540;13.290;2023-04-24T00:12:38;12.80;99.90
6439;DHT22;3252;52.540;13.290;2023-04-24T00:14:40;12.80;99.90
6439;DHT22;3252;52.540;13.290;2023-04-24T00:16:43;12.80;99.90
6439;DHT22;3252;52.540;13.290;2023-04-24T00:18:45;12.80;99.90
6439;DHT22;3252;52.540;13.290;2023-04-24T00:20:49;12.80;99.90
6439;DHT22;3252;52.540;13.290;2023-04-24T00:22:52;12.70;99.90
6439;DHT22;3252;52.540;13.290;2023-04-24T00:24:54;12.70;99.90
6439;DHT22;3252;52.540;13.290;2023-04-24T00:26:56;12.70;99.90
6439;DHT22;3252;52.540;13.290;2023-04-24T00:28:58;12.60;99.90
6439;DHT22;3252;52.540;13.290;2023-04-24T00:31:01;12.60;99.90
6439;DHT22;3252;52.540;13.290;2023-04-24T00:33:04;12.60;99.90
6439;DHT22;3252;52.540;13.290;2023-04-24T00:35:07;12.60;99.90
6439;DHT22;3252;52.540;13.290;2023-04-24T00:37:10;12.60;99.90
6439;DHT22;3252;52.540;13.290;2023-04-24T00:39:13;12.60;99.90
6439;DHT22;3252;52.540;13.290;2023-04-24T00:41:15;12.50;99.90
6439;DHT22;3252;52.540;13.290;2023-04-24T00:43:18;12.50;99.90
6439;DHT22;3252;52.540;13.290;2023-04-24T00:45:20;12.50;99.90
6439;DHT22;3252;52.540;13.290;2023-04-24T00:47:23;12.50;99.90
6439;DHT22;3252;52.540;13.290;2023-04-24T00:49:25;12.60;99.90
6439;DHT22;3252;52.540;13.290;2023-04-24T00:51:27;12.50;99.90
6439;DHT22;3252;52.540;13.290;2023-04-24T00:53:33;12.50;99.90
6439;DHT22;3252;52.540;13.290;2023-04-24T00:55:35;12.50;99.90
6439;DHT22;3252;52.540;13.290;2023-04-24T00:57:39;12.50;99.90
6439;DHT22;3252;52.540;13.290;2023-04-24T00:59:41;12.50;99.90
6439;DHT22;3252;52.540;13.290;2023-04-24T01:01:44;12.40;99.90
6439;DHT22;3252;52.540;13.290;2023-04-24T01:03:47;12.50;99.90
6439;DHT22;3252;52.540;13.290;2023-04-24T01:05:50;12.50;99.90
6439;DHT22;3252;52.540;13.290;2023-04-24T01:07:53;12.50;99.90
6439;DHT22;3252;52.540;13.290;2023-04-24T01:09:56;12.50;99.90
6439;DHT22;3252;52.540;13.290;2023-04-24T01:11:59;12.50;99.90
6439;DHT22;3252;52.540;13.290;2023-04-24T01:14:02;12.50;99.90
6439;DHT22;3252;52.540;13.290;2023-04-24T01:16:04;12.50;99.90
6439;DHT22;3252;52.540;13.290;2023-04-24T01:18:08;12.50;99.90
6439;DHT22;3252;52.540;13.290;2023-04-24T01:20:11;12.50;99.90
6439;DHT22;3252;52.540;13.290;2023-04-24T01:22:17;12.60;99.90
6439;DHT22;3252;52.540;13.290;2023-04-24T01:24:19;12.60;99.90
6439;DHT22;3252;52.540;13.290;2023-04-24T01:26:21;12.60;99.90
6439;DHT22;3252;52.540;13.290;2023-04-24T01:28:24;12.60;99.90
6439;DHT22;3252;52.540;13.290;2023-04-24T01:30:27;12.60;99.90
6439;DHT22;3252;52.540;13.290;2023-04-24T01:32:29;12.70;99.90
6439;DHT22;3252;52.540;13.290;2023-04-24T01:34:32;12.70;99.90
6439;DHT22;3252;52.540;13.290;2023-04-24T01:36:35;12.70;99.90
6439;DHT22;3252;52.540;13.290;2023-04-24T01:38:38;12.60;99.90
6439;DHT22;3252;52.540;13.290;2023-04-24T01:40:41;12.70;99.90
6439;DHT22;3252;52.540;13.290;2023-04-24T01:42:43;12.60;99.90
6439;DHT22;3252;52.540;13.290;2023-04-24T01:44:45;12.60;99.90
6439;DHT22;3252;52.540;13.290;2023-04-24T01:46:48;12.60;99.90
6439;DHT22;3252;52.540;13.290;2023-04-24T01:48:51;12.60;99.90
6439;DHT22;3252;52.540;13.290;2023-04-24T01:50:56;12.60;99.90
6439;DHT22;3252;52.540;13.290;2023-04-24T01:52:58;12.60;99.90
6439;DHT22;3252;52.540;13.290;2023-04-24T01:55:02;12.60;99.90
6439;DHT22;3252;52.540;13.290;2023-04-24T01:57:05;12.60;99.90
6439;DHT22;3252;52.540;13.290;2023-04-24T01:59:07;12.60;99.90
6439;DHT22;3252;52.540;13.290;2023-04-24T02:01:15;12.70;99.90
6439;DHT22;3252;52.540;13.290;2023-04-24T02:03:22;12.60;99.90
6439;DHT22;3252;52.540;13.290;2023-04-24T02:05:24;12.70;99.90
6439;DHT22;3252;52.540;13.290;2023-04-24T02:07:26;12.60;99.90
6439;DHT22;3252;52.540;13.290;2023-04-24T02:09:28;12.60;99.90
6439;DHT22;3252;52.540;13.290;2023-04-24T02:11:32;12.60;99.90
6439;DHT22;3252;52.540;13.290;2023-04-24T02:13:34;12.60;99.90
6439;DHT22;3252;52.540;13.290;2023-04-24T02:15:36;12.60;99.90
6439;DHT22;3252;52.540;13.290;2023-04-24T02:17:38;12.60;99.90
6439;DHT22;3252;52.540;13.290;2023-04-24T02:19:41;12.60;99.90
6439;DHT22;3252;52.540;13.290;2023-04-24T02:21:45;12.60;99.90
6439;DHT22;3252;52.540;13.290;2023-04-24T02:23:47;12.60;99.90
6439;DHT22;3252;52.540;13.290;2023-04-24T02:25:49;12.60;99.90
6439;DHT22;3252;52.540;13.290;2023-04-24T02:27:53;12.60;99.90
6439;DHT22;3252;52.540;13.290;2023-04-24T02:29:55;12.60;99.90
6439;DHT22;3252;52.540;13.290;2023-04-24T02:31:57;12.60;99.90
6439;DHT22;3252;52.540;13.290;2023-04-24T02:33:59;12.60;99.90
6439;DHT22;3252;52.540;13.290;2023-04-24T02:36:02;12.60;99.90
6439;DHT22;3252;52.540;13.290;2023-04-24T02:38:04;12.50;99.90
6439;DHT22;3252;52.540;13.290;2023-04-24T02:40:08;12.50;99.90
6439;DHT22;3252;52.540;13.290;2023-04-24T02:42:10;12.40;99.90
6439;DHT22;3252;52.540;13.290;2023-04-24T02:44:14;12.50;99.90
6439;DHT22;3252;52.540;13.290;2023-04-24T02:46:18;12.50;99.90
6439;DHT22;3252;52.540;13.290;2023-04-24T02:48:20;12.50;99.90
6439;DHT22;3252;52.540;13.290;2023-04-24T02:50:22;12.50;99.90
6439;DHT22;3252;52.540;13.290;2023-04-24T02:52:24;12.40;99.90
6439;DHT22;3252;52.540;13.290;2023-04-24T02:54:27;12.40;99.90
6439;DHT22;3252;52.540;13.290;2023-04-24T02:56:29;12.40;99.90
6439;DHT22;3252;52.540;13.290;2023-04-24T02:58:33;12.40;99.90
6439;DHT22;3252;52.540;13.290;2023-04-24T03:00:37;12.40;99.90
6439;DHT22;3252;52.540;13.290;2023-04-24T03:02:40;12.40;99.90
6439;DHT22;3252;52.540;13.290;2023-04-24T03:04:42;12.40;99.90
6439;DHT22;3252;52.540;13.290;2023-04-24T03:06:46;12.50;99.90
6439;DHT22;3252;52.540;13.290;2023-04-24T03:08:48;12.50;99.90
6439;DHT22;3252;52.540;13.290;2023-04-24T03:10:50;12.50;99.90
6439;DHT22;3252;52.540;13.290;2023-04-24T03:12:53;12.50;99.90
6439;DHT22;3252;52.540;13.290;2023-04-24T03:14:55;12.50;99.90
6439;DHT22;3252;52.540;13.290;2023-04-24T03:16:59;12.50;99.90
6439;DHT22;3252;52.540;13.290;2023-04-24T03:19:01;12.50;99.90
6439;DHT22;3252;52.540;13.290;2023-04-24T03:21:07;12.50;99.90
6439;DHT22;3252;52.540;13.290;2023-04-24T03:23:09;12.50;99.90
6439;DHT22;3252;52.540;13.290;2023-04-24T03:25:12;12.50;99.90
6439;DHT22;3252;52.540;13.290;2023-04-24T03:27:15;12.50;99.90
6439;DHT22;3252;52.540;13.290;2023-04-24T03:29:25;12.50;99.90
6439;DHT22;3252;52.540;13.290;2023-04-24T03:31:27;12.50;99.90
6439;DHT22;3252;52.540;13.290;2023-04-24T03:33:31;12.50;99.90
6439;DHT22;3252;52.540;13.290;2023-04-24T03:35:35;12.50;99.90
6439;DHT22;3252;52.540;13.290;2023-04-24T03:37:42;12.50;99.90
6439;DHT22;3252;52.540;13.290;2023-04-24T03:40:06;12.50;99.90
6439;DHT22;3252;52.540;13.290;2023-04-24T03:42:10;12.50;99.90
6439;DHT22;3252;52.540;13.290;2023-04-24T03:44:23;12.40;99.90
6439;DHT22;3252;52.540;13.290;2023-04-24T03:46:25;12.40;99.90
6439;DHT22;3252;52.540;13.290;2023-04-24T03:48:33;12.40;99.90
6439;DHT22;3252;52.540;13.290;2023-04-24T03:50:36;12.40;99.90
6439;DHT22;3252;52.540;13.290;2023-04-24T03:52:39;12.40;99.90
6439;DHT22;3252;52.540;13.290;2023-04-24T03:54:42;12.40;99.90
6439;DHT22;3252;52.540;13.290;2023-04-24T03:56:46;12.40;99.90
6439;DHT22;3252;52.540;13.290;2023-04-24T03:58:48;12.40;99.90
6439;DHT22;3252;52.540;13.290;2023-04-24T04:00:50;12.40;99.90
6439;DHT22;3252;52.540;13.290;2023-04-24T04:03:12;12.40;99.90
6439;DHT22;3252;52.540;13.290;2023-04-24T04:05:17;12.40;99.90
6439;DHT22;3252;52.540;13.290;2023-04-24T04:07:19;12.50;99.90
6439;DHT22;3252;52.540;13.290;2023-04-24T04:09:22;12.40;99.90
6439;DHT22;3252;52.540;13.290;2023-04-24T04:11:24;12.40;99.90
6439;DHT22;3252;52.540;13.290;2023-04-24T04:13:26;12.50;99.90
6439;DHT22;3252;52.540;13.290;2023-04-24T04:15:28;12.50;99.90
6439;DHT22;3252;52.540;13.290;2023-04-24T04:17:31;12.50;99.90
6439;DHT22;3252;52.540;13.290;2023-04-24T04:19:35;12.50;99.90
6439;DHT22;3252;52.540;13.290;2023-04-24T04:21:39;12.50;99.90
6439;DHT22;3252;52.540;13.290;2023-04-24T04:23:52;12.50;99.90
6439;DHT22;3252;52.540;13.290;2023-04-24T04:26:01;12.50;99.90
6439;DHT22;3252;52.540;13.290;2023-04-24T04:28:14;12.50;99.90
6439;DHT22;3252;52.540;13.290;2023-04-24T04:30:17;12.50;99.90
6439;DHT22;3252;52.540;13.290;2023-04-24T04:32:29;12.50;99.90
6439;DHT22;3252;52.540;13.290;2023-04-24T04:34:32;12.40;99.90
6439;DHT22;3252;52.540;13.290;2023-04-24T04:36:34;12.40;99.90
6439;DHT22;3252;52.540;13.290;2023-04-24T04:38:51;12.50;99.90
6439;DHT22;3252;52.540;13.290;2023-04-24T04:41:19;12.50;99.90
6439;DHT22;3252;52.540;13.290;2023-04-24T04:43:21;12.50;99.90
6439;DHT22;3252;52.540;13.290;2023-04-24T04:45:26;12.50;99.90
6439;DHT22;3252;52.540;13.290;2023-04-24T04:47:49;12.50;99.90
6439;DHT22;3252;52.540;13.290;2023-04-24T04:49:51;12.50;99.90
6439;DHT22;3252;52.540;13.290;2023-04-24T04:51:57;12.50;99.90
6439;DHT22;3252;52.540;13.290;2023-04-24T04:54:02;12.50;99.90
6439;DHT22;3252;52.540;13.290;2023-04-24T04:56:05;12.50;99.90
6439;DHT22;3252;52.540;13.290;2023-04-24T04:58:11;12.50;99.90
6439;DHT22;3252;52.540;13.290;2023-04-24T05:00:14;12.60;99.90
6439;DHT22;3252;52.540;13.290;2023-04-24T05:02:22;12.60;99.90
6439;DHT22;3252;52.540;13.290;2023-04-24T05:04:25;12.60;99.90
6439;DHT22;3252;52.540;13.290;2023-04-24T05:06:27;12.60;99.90
6439;DHT22;3252;52.540;13.290;2023-04-24T05:08:30;12.60;99.90
6439;DHT22;3252;52.540;13.290;2023-04-24T05:10:34;12.60;99.90
6439;DHT22;3252;52.540;13.290;2023-04-24T05:12:38;12.70;99.90
6439;DHT22;3252;52.540;13.290;2023-04-24T05:14:41;12.70;99.90
6439;DHT22;3252;52.540;13.290;2023-04-24T05:16:45;12.70;99.90
6439;DHT22;3252;52.540;13.290;2023-04-24T05:18:48;12.80;99.90
6439;DHT22;3252;52.540;13.290;2023-04-24T05:20:54;12.80;99.90
6439;DHT22;3252;52.540;13.290;2023-04-24T05:22:58;12.90;99.90
6439;DHT22;3252;52.540;13.290;2023-04-24T05:25:01;12.80;99.90
6439;DHT22;3252;52.540;13.290;2023-04-24T05:27:28;12.90;99.90
6439;DHT22;3252;52.540;13.290;2023-04-24T05:29:31;12.90;99.90
6439;DHT22;3252;52.540;13.290;2023-04-24T05:31:33;13.00;99.90
6439;DHT22;3252;52.540;13.290;2023-04-24T05:33:36;13.00;99.90
6439;DHT22;3252;52.540;13.290;2023-04-24T05:35:38;13.00;99.90
6439;DHT22;3252;52.540;13.290;2023-04-24T05:37:46;13.10;99.90
6439;DHT22;3252;52.540;13.290;2023-04-24T05:39:49;13.10;99.90
6439;DHT22;3252;52.540;13.290;2023-04-24T05:41:51;13.00;99.90
6439;DHT22;3252;52.540;13.290;2023-04-24T05:43:55;13.10;99.90
6439;DHT22;3252;52.540;13.290;2023-04-24T05:45:57;13.10;99.90
6439;DHT22;3252;52.540;13.290;2023-04-24T05:47:59;13.20;99.90
6439;DHT22;3252;52.540;13.290;2023-04-24T05:50:01;13.30;99.90
6439;DHT22;3252;52.540;13.290;2023-04-24T05:52:04;13.30;99.90
6439;DHT22;3252;52.540;13.290;2023-04-24T05:54:10;13.30;99.90
6439;DHT22;3252;52.540;13.290;2023-04-24T05:56:13;13.30;99.90
6439;DHT22;3252;52.540;13.290;2023-04-24T05:58:15;13.40;99.90
6439;DHT22;3252;52.540;13.290;2023-04-24T06:00:20;13.50;99.90
6439;DHT22;3252;52.540;13.290;2023-04-24T06:02:31;13.70;99.90
6439;DHT22;3252;52.540;13.290;2023-04-24T06:04:34;14.00;99.90
6439;DHT22;3252;52.540;13.290;2023-04-24T06:06:36;14.30;99.90
6439;DHT22;3252;52.540;13.290;2023-04-24T06:08:39;14.50;99.90
6439;DHT22;3252;52.540;13.290;2023-04-24T06:10:41;14.40;99.90
6439;DHT22;3252;52.540;13.290;2023-04-24T06:12:44;14.40;99.90
6439;DHT22;3252;52.540;13.290;2023-04-24T06:14:51;14.70;99.90
6439;DHT22;3252;52.540;13.290;2023-04-24T06:17:02;14.90;99.90
6439;DHT22;3252;52.540;13.290;2023-04-24T06:19:10;15.20;99.90
6439;DHT22;3252;52.540;13.290;2023-04-24T06:21:12;15.30;99.90
6439;DHT22;3252;52.540;13.290;2023-04-24T06:23:15;15.60;99.90
6439;DHT22;3252;52.540;13.290;2023-04-24T06:25:17;16.00;99.90
6439;DHT22;3252;52.540;13.290;2023-04-24T06:27:19;16.30;99.90
6439;DHT22;3252;52.540;13.290;2023-04-24T06:29:21;16.30;99.90
6439;DHT22;3252;52.540;13.290;2023-04-24T06:31:25;16.30;99.90
6439;DHT22;3252;52.540;13.290;2023-04-24T06:33:30;16.60;99.90
6439;DHT22;3252;52.540;13.290;2023-04-24T06:35:33;16.80;99.90
6439;DHT22;3252;52.540;13.290;2023-04-24T06:37:35;16.80;99.90
6439;DHT22;3252;52.540;13.290;2023-04-24T06:39:38;16.60;99.90
6439;DHT22;3252;52.540;13.290;2023-04-24T06:41:40;16.40;99.90
6439;DHT22;3252;52.540;13.290;2023-04-24T06:43:50;16.60;99.90
6439;DHT22;3252;52.540;13.290;2023-04-24T06:45:53;16.90;99.90
6439;DHT22;3252;52.540;13.290;2023-04-24T06:47:55;17.20;99.60
6439;DHT22;3252;52.540;13.290;2023-04-24T06:49:59;17.30;99.00
6439;DHT22;3252;52.540;13.290;2023-04-24T06:52:01;17.10;99.40
6439;DHT22;3252;52.540;13.290;2023-04-24T06:54:03;16.80;99.90
6439;DHT22;3252;52.540;13.290;2023-04-24T06:56:05;17.00;99.80
6439;DHT22;3252;52.540;13.290;2023-04-24T06:58:07;17.10;99.40
6439;DHT22;3252;52.540;13.290;2023-04-24T07:00:11;17.00;99.10
6439;DHT22;3252;52.540;13.290;2023-04-24T07:02:13;16.90;99.80
6439;DHT22;3252;52.540;13.290;2023-04-24T07:04:15;16.70;99.70
6439;DHT22;3252;52.540;13.290;2023-04-24T07:06:19;16.60;99.90
6439;DHT22;3252;52.540;13.290;2023-04-24T07:08:23;16.80;99.90
6439;DHT22;3252;52.540;13.290;2023-04-24T07:10:26;17.00;99.10
6439;DHT22;3252;52.540;13.290;2023-04-24T07:12:29;17.20;98.80
6439;DHT22;3252;52.540;13.290;2023-04-24T07:14:31;16.80;99.30
6439;DHT22;3252;52.540;13.290;2023-04-24T07:16:33;16.90;99.80
6439;DHT22;3252;52.540;13.290;2023-04-24T07:18:35;17.40;98.10
6439;DHT22;3252;52.540;13.290;2023-04-24T07:20:40;17.80;96.80
6439;DHT22;3252;52.540;13.290;2023-04-24T07:22:43;17.70;96.80
6439;DHT22;3252;52.540;13.290;2023-04-24T07:24:45;17.80;96.60
6439;DHT22;3252;52.540;13.290;2023-04-24T07:26:48;17.70;95.70
6439;DHT22;3252;52.540;13.290;2023-04-24T07:28:52;17.60;95.00
6439;DHT22;3252;52.540;13.290;2023-04-24T07:30:54;17.20;95.40
6439;DHT22;3252;52.540;13.290;2023-04-24T07:32:56;17.00;96.30
6439;DHT22;3252;52.540;13.290;2023-04-24T07:34:58;17.20;95.40
6439;DHT22;3252;52.540;13.290;2023-04-24T07:37:01;17.50;96.00
6439;DHT22;3252;52.540;13.290;2023-04-24T07:39:05;17.80;94.20
6439;DHT22;3252;52.540;13.290;2023-04-24T07:41:08;17.90;93.10
6439;DHT22;3252;52.540;13.290;2023-04-24T07:43:10;18.20;93.50
6439;DHT22;3252;52.540;13.290;2023-04-24T07:45:12;18.60;91.60
6439;DHT22;3252;52.540;13.290;2023-04-24T07:47:14;19.20;92.20
6439;DHT22;3252;52.540;13.290;2023-04-24T07:49:17;19.50;90.80
6439;DHT22;3252;52.540;13.290;2023-04-24T07:51:19;19.70;87.40
6439;DHT22;3252;52.540;13.290;2023-04-24T07:53:21;19.90;85.20
6439;DHT22;3252;52.540;13.290;2023-04-24T07:55:25;19.60;79.70
6439;DHT22;3252;52.540;13.290;2023-04-24T07:57:27;19.30;81.50
6439;DHT22;3252;52.540;13.290;2023-04-24T07:59:30;19.30;82.30
6439;DHT22;3252;52.540;13.290;2023-04-24T08:01:32;19.30;77.90
6439;DHT22;3252;52.540;13.290;2023-04-24T08:03:34;19.40;77.40
6439;DHT22;3252;52.540;13.290;2023-04-24T08:05:38;19.50;74.90
6439;DHT22;3252;52.540;13.290;2023-04-24T08:07:40;20.30;70.80
6439;DHT22;3252;52.540;13.290;2023-04-24T08:09:43;21.10;63.80
6439;DHT22;3252;52.540;13.290;2023-04-24T08:11:47;20.90;59.50
6439;DHT22;3252;52.540;13.290;2023-04-24T08:13:49;20.70;60.20
6439;DHT22;3252;52.540;13.290;2023-04-24T08:15:51;20.20;63.80
6439;DHT22;3252;52.540;13.290;2023-04-24T08:17:54;20.20;71.70
6439;DHT22;3252;52.540;13.290;2023-04-24T08:19:56;20.60;65.60
6439;DHT22;3252;52.540;13.290;2023-04-24T08:22:02;20.40;67.00
6439;DHT22;3252;52.540;13.290;2023-04-24T08:24:05;20.20;66.30
6439;DHT22;3252;52.540;13.290;2023-04-24T08:26:08;20.10;67.10
6439;DHT22;3252;52.540;13.290;2023-04-24T08:28:13;19.00;72.50
6439;DHT22;3252;52.540;13.290;2023-04-24T08:30:20;18.70;77.00
6439;DHT22;3252;52.540;13.290;2023-04-24T08:32:23;18.60;78.90
6439;DHT22;3252;52.540;13.290;2023-04-24T08:34:25;18.60;80.20
6439;DHT22;3252;52.540;13.290;2023-04-24T08:36:27;18.90;80.00
6439;DHT22;3252;52.540;13.290;2023-04-24T08:38:31;19.20;75.70
6439;DHT22;3252;52.540;13.290;2023-04-24T08:40:34;19.40;71.30
6439;DHT22;3252;52.540;13.290;2023-04-24T08:42:37;19.30;74.30
6439;DHT22;3252;52.540;13.290;2023-04-24T08:44:41;19.30;76.90
6439;DHT22;3252;52.540;13.290;2023-04-24T08:46:44;18.80;75.50
6439;DHT22;3252;52.540;13.290;2023-04-24T08:48:48;18.80;75.80
6439;DHT22;3252;52.540;13.290;2023-04-24T08:50:51;18.60;79.50
6439;DHT22;3252;52.540;13.290;2023-04-24T08:52:53;18.60;81.10
6439;DHT22;3252;52.540;13.290;2023-04-24T08:54:56;18.90;83.70
6439;DHT22;3252;52.540;13.290;2023-04-24T08:56:59;18.90;75.60
6439;DHT22;3252;52.540;13.290;2023-04-24T08:59:02;18.60;74.80
6439;DHT22;3252;52.540;13.290;2023-04-24T09:01:06;18.60;80.60
6439;DHT22;3252;52.540;13.290;2023-04-24T09:03:08;18.70;83.00
6439;DHT22;3252;52.540;13.290;2023-04-24T09:05:13;18.50;81.70
6439;DHT22;3252;52.540;13.290;2023-04-24T09:07:16;18.30;84.40
6439;DHT22;3252;52.540;13.290;2023-04-24T09:09:19;18.20;86.70
6439;DHT22;3252;52.540;13.290;2023-04-24T09:11:21;18.20;86.70
6439;DHT22;3252;52.540;13.290;2023-04-24T09:13:25;18.10;87.80
6439;DHT22;3252;52.540;13.290;2023-04-24T09:15:29;18.10;84.70
6439;DHT22;3252;52.540;13.290;2023-04-24T09:17:33;18.10;86.20
6439;DHT22;3252;52.540;13.290;2023-04-24T09:19:36;18.20;86.80
6439;DHT22;3252;52.540;13.290;2023-04-24T09:21:38;18.40;85.20
6439;DHT22;3252;52.540;13.290;2023-04-24T09:23:42;18.10;84.10
6439;DHT22;3252;52.540;13.290;2023-04-24T09:25:45;17.80;87.50
6439;DHT22;3252;52.540;13.290;2023-04-24T09:27:47;18.10;89.10
6439;DHT22;3252;52.540;13.290;2023-04-24T09:29:56;18.60;84.60
6439;DHT22;3252;52.540;13.290;2023-04-24T09:31:59;19.20;80.60
6439;DHT22;3252;52.540;13.290;2023-04-24T09:34:23;19.50;77.50
6439;DHT22;3252;52.540;13.290;2023-04-24T09:36:30;19.40;83.10
6439;DHT22;3252;52.540;13.290;2023-04-24T09:38:35;19.00;87.00
6439;DHT22;3252;52.540;13.290;2023-04-24T09:40:37;18.60;90.00
6439;DHT22;3252;52.540;13.290;2023-04-24T09:42:44;18.30;91.90
6439;DHT22;3252;52.540;13.290;2023-04-24T09:44:49;18.00;93.10
6439;DHT22;3252;52.540;13.290;2023-04-24T09:46:54;18.00;92.90
6439;DHT22;3252;52.540;13.290;2023-04-24T09:48:57;17.70;93.50
6439;DHT22;3252;52.540;13.290;2023-04-24T09:51:01;17.70;94.00
6439;DHT22;3252;52.540;13.290;2023-04-24T09:53:05;17.50;94.60
6439;DHT22;3252;52.540;13.290;2023-04-24T09:55:14;17.60;94.50
6439;DHT22;3252;52.540;13.290;2023-04-24T09:57:17;17.40;94.50
6439;DHT22;3252;52.540;13.290;2023-04-24T09:59:20;17.20;94.80
6439;DHT22;3252;52.540;13.290;2023-04-24T10:01:30;17.10;94.70
6439;DHT22;3252;52.540;13.290;2023-04-24T10:03:33;17.00;95.20
6439;DHT22;3252;52.540;13.290;2023-04-24T10:05:37;17.00;95.30
6439;DHT22;3252;52.540;13.290;2023-04-24T10:07:43;17.40;94.60
6439;DHT22;3252;52.540;13.290;2023-04-24T10:09:45;18.10;94.00
6439;DHT22;3252;52.540;13.290;2023-04-24T10:11:48;18.60;90.80
6439;DHT22;3252;52.540;13.290;2023-04-24T10:13:51;19.90;83.20
6439;DHT22;3252;52.540;13.290;2023-04-24T10:15:54;20.90;76.90
6439;DHT22;3252;52.540;13.290;2023-04-24T10:17:58;20.70;77.80
6439;DHT22;3252;52.540;13.290;2023-04-24T10:20:00;20.20;78.90
6439;DHT22;3252;52.540;13.290;2023-04-24T10:22:04;19.70;80.30
6439;DHT22;3252;52.540;13.290;2023-04-24T10:24:08;19.30;83.00
6439;DHT22;3252;52.540;13.290;2023-04-24T10:26:12;18.90;84.20
6439;DHT22;3252;52.540;13.290;2023-04-24T10:28:19;18.60;86.30
6439;DHT22;3252;52.540;13.290;2023-04-24T10:30:22;18.20;90.10
6439;DHT22;3252;52.540;13.290;2023-04-24T10:32:24;18.00;91.40
6439;DHT22;3252;52.540;13.290;2023-04-24T10:34:27;17.70;92.40
6439;DHT22;3252;52.540;13.290;2023-04-24T10:36:31;17.60;93.70
6439;DHT22;3252;52.540;13.290;2023-04-24T10:38:34;17.40;93.80
6439;DHT22;3252;52.540;13.290;2023-04-24T10:40:38;17.20;94.30
6439;DHT22;3252;52.540;13.290;2023-04-24T10:42:41;17.10;95.00
6439;DHT22;3252;52.540;13.290;2023-04-24T10:44:47;17.00;94.90
6439;DHT22;3252;52.540;13.290;2023-04-24T10:46:54;16.80;95.50
6439;DHT22;3252;52.540;13.290;2023-04-24T10:48:57;16.80;95.70
6439;DHT22;3252;52.540;13.290;2023-04-24T10:51:00;16.60;95.20
6439;DHT22;3252;52.540;13.290;2023-04-24T10:53:07;16.50;95.70
6439;DHT22;3252;52.540;13.290;2023-04-24T10:55:10;16.60;96.10
6439;DHT22;3252;52.540;13.290;2023-04-24T10:57:28;16.70;97.00
6439;DHT22;3252;52.540;13.290;2023-04-24T10:59:35;17.00;96.60
6439;DHT22;3252;52.540;13.290;2023-04-24T11:01:38;17.30;96.70
6439;DHT22;3252;52.540;13.290;2023-04-24T11:03:50;17.80;96.40
6439;DHT22;3252;52.540;13.290;2023-04-24T11:05:58;17.90;94.70
6439;DHT22;3252;52.540;13.290;2023-04-24T11:08:13;18.00;94.90
6439;DHT22;3252;52.540;13.290;2023-04-24T11:10:25;17.90;95.80
6439;DHT22;3252;52.540;13.290;2023-04-24T11:12:29;17.80;94.50
6439;DHT22;3252;52.540;13.290;2023-04-24T11:15:01;17.90;94.80
6439;DHT22;3252;52.540;13.290;2023-04-24T11:17:03;17.60;94.60
6439;DHT22;3252;52.540;13.290;2023-04-24T11:19:07;17.60;96.00
6439;DHT22;3252;52.540;13.290;2023-04-24T11:21:11;17.50;96.40
6439;DHT22;3252;52.540;13.290;2023-04-24T11:23:13;17.50;96.20
6439;DHT22;3252;52.540;13.290;2023-04-24T11:25:16;17.50;96.40
6439;DHT22;3252;52.540;13.290;2023-04-24T11:27:20;17.40;96.70
6439;DHT22;3252;52.540;13.290;2023-04-24T11:29:38;17.20;97.30
6439;DHT22;3252;52.540;13.290;2023-04-24T11:31:41;17.10;97.60
6439;DHT22;3252;52.540;13.290;2023-04-24T11:33:49;16.90;97.80
6439;DHT22;3252;52.540;13.290;2023-04-24T11:35:51;16.70;97.90
6439;DHT22;3252;52.540;13.290;2023-04-24T11:37:54;16.60;98.80
6439;DHT22;3252;52.540;13.290;2023-04-24T11:39:57;16.50;99.40
6439;DHT22;3252;52.540;13.290;2023-04-24T11:42:02;16.40;99.90
6439;DHT22;3252;52.540;13.290;2023-04-24T11:44:08;16.40;99.60
6439;DHT22;3252;52.540;13.290;2023-04-24T11:46:12;16.30;99.90
6439;DHT22;3252;52.540;13.290;2023-04-24T11:48:19;16.50;99.90
6439;DHT22;3252;52.540;13.290;2023-04-24T11:50:23;16.70;99.90
6439;DHT22;3252;52.540;13.290;2023-04-24T11:52:26;17.00;99.90
6439;DHT22;3252;52.540;13.290;2023-04-24T11:54:29;17.10;99.20
6439;DHT22;3252;52.540;13.290;2023-04-24T11:56:31;17.20;98.70
6439;DHT22;3252;52.540;13.290;2023-04-24T11:58:35;17.40;97.90
6439;DHT22;3252;52.540;13.290;2023-04-24T12:00:37;17.60;98.10
6439;DHT22;3252;52.540;13.290;2023-04-24T12:02:41;17.90;98.70
6439;DHT22;3252;52.540;13.290;2023-04-24T12:04:44;18.10;97.80
6439;DHT22;3252;52.540;13.290;2023-04-24T12:07:01;18.20;97.90
6439;DHT22;3252;52.540;13.290;2023-04-24T12:09:04;18.10;98.00
6439;DHT22;3252;52.540;13.290;2023-04-24T12:11:07;18.20;97.90
6439;DHT22;3252;52.540;13.290;2023-04-24T12:13:10;18.30;97.70
6439;DHT22;3252;52.540;13.290;2023-04-24T12:15:13;18.10;97.90
6439;DHT22;3252;52.540;13.290;2023-04-24T12:17:17;18.00;97.20
6439;DHT22;3252;52.540;13.290;2023-04-24T12:19:22;18.00;96.80
6439;DHT22;3252;52.540;13.290;2023-04-24T12:21:25;17.90;96.90
6439;DHT22;3252;52.540;13.290;2023-04-24T12:23:35;18.00;96.90
6439;DHT22;3252;52.540;13.290;2023-04-24T12:25:39;17.80;95.10
6439;DHT22;3252;52.540;13.290;2023-04-24T12:27:41;17.70;95.10
6439;DHT22;3252;52.540;13.290;2023-04-24T12:29:51;17.70;95.50
6439;DHT22;3252;52.540;13.290;2023-04-24T12:31:54;17.70;97.30
6439;DHT22;3252;52.540;13.290;2023-04-24T12:33:56;17.80;91.30
6439;DHT22;3252;52.540;13.290;2023-04-24T12:36:01;17.70;91.40
6439;DHT22;3252;52.540;13.290;2023-04-24T12:38:06;17.60;79.40
6439;DHT22;3252;52.540;13.290;2023-04-24T12:40:10;17.50;85.30
6439;DHT22;3252;52.540;13.290;2023-04-24T12:42:12;17.60;83.40
6439;DHT22;3252;52.540;13.290;2023-04-24T12:44:14;17.60;78.90
6439;DHT22;3252;52.540;13.290;2023-04-24T12:46:17;17.60;79.60
6439;DHT22;3252;52.540;13.290;2023-04-24T12:48:19;17.60;80.60
6439;DHT22;3252;52.540;13.290;2023-04-24T12:50:23;17.40;81.50
6439;DHT22;3252;52.540;13.290;2023-04-24T12:52:28;17.40;85.90
6439;DHT22;3252;52.540;13.290;2023-04-24T12:54:32;17.50;83.30
6439;DHT22;3252;52.540;13.290;2023-04-24T12:56:35;17.50;84.90
6439;DHT22;3252;52.540;13.290;2023-04-24T12:58:40;17.60;86.80
6439;DHT22;3252;52.540;13.290;2023-04-24T13:00:42;17.80;86.50
6439;DHT22;3252;52.540;13.290;2023-04-24T13:02:46;18.00;88.80
6439;DHT22;3252;52.540;13.290;2023-04-24T13:04:49;18.00;81.30
6439;DHT22;3252;52.540;13.290;2023-04-24T13:06:51;17.90;82.30
6439;DHT22;3252;52.540;13.290;2023-04-24T13:08:55;17.90;83.30
6439;DHT22;3252;52.540;13.290;2023-04-24T13:10:58;18.10;83.60
6439;DHT22;3252;52.540;13.290;2023-04-24T13:13:01;18.10;79.20
6439;DHT22;3252;52.540;13.290;2023-04-24T13:15:03;18.30;85.10